createdAt,value
2023-01-29T17:50:43.039Z,29.90
2023-01-29T17:53:11.798Z,28.80
2023-01-29T17:55:40.079Z,30.33
2023-01-29T17:58:20.190Z,30.15
2023-01-29T18:00:49.288Z,28.98
2023-01-29T18:03:18.328Z,29.77
2023-01-29T18:05:48.569Z,26.17
2023-01-29T18:08:24.728Z,27.13
2023-01-29T18:10:53.037Z,25.33
2023-01-29T18:13:21.667Z,25.38
2023-01-29T18:15:50.302Z,25.25
2023-01-29T18:18:22.594Z,25.75
2023-01-29T18:20:51.235Z,24.77
2023-01-29T18:23:19.909Z,24.48
2023-01-29T18:25:48.184Z,26.35
2023-01-29T18:28:17.803Z,25.90
2023-01-29T18:30:47.603Z,25.10
2023-01-29T18:33:17.231Z,25.15
2023-01-29T18:35:48.150Z,25.40
2023-01-29T18:38:17.265Z,27.83
2023-01-29T18:40:45.560Z,25.05
2023-01-29T18:43:17.340Z,26.77
2023-01-29T18:45:46.319Z,26.15
2023-01-29T18:48:14.965Z,27.67
2023-01-29T18:50:43.218Z,27.05
2023-01-29T18:53:11.944Z,26.20
2023-01-29T18:55:40.223Z,26.48
2023-01-29T18:58:27.893Z,27.48
2023-01-29T19:00:57.280Z,26.52
2023-01-29T19:03:26.412Z,28.40
2023-01-29T19:05:54.670Z,29.63
2023-01-29T19:08:23.256Z,26.52
2023-01-29T19:10:51.637Z,29.13
2023-01-29T19:13:20.344Z,29.67
2023-01-29T19:15:49.192Z,27.75
2023-01-29T19:18:17.891Z,28.85
2023-01-29T19:20:46.276Z,28.73
2023-01-29T19:23:14.915Z,30.50
2023-01-29T19:25:43.564Z,27.25
2023-01-29T19:28:12.284Z,29.90
2023-01-29T19:30:40.631Z,25.48
2023-01-29T19:33:10.883Z,28.17
2023-01-29T19:35:39.227Z,28.42
2023-01-29T19:38:08.189Z,25.90
2023-01-29T19:40:38.804Z,26.80
2023-01-29T19:43:07.506Z,27.50
2023-01-29T19:45:49.736Z,26.33
2023-01-29T19:48:21.679Z,28.30
2023-01-29T19:50:57.867Z,28.27
2023-01-29T19:53:29.091Z,24.58
2023-01-29T19:56:05.602Z,29.13
2023-01-29T19:58:34.895Z,26.90
2023-01-29T20:01:06.512Z,27.25
2023-01-29T20:03:35.473Z,27.00
2023-01-29T20:06:05.547Z,26.98
2023-01-29T20:08:34.896Z,27.67
2023-01-29T20:11:04.444Z,26.42
2023-01-29T20:13:33.534Z,26.80
2023-01-29T20:16:04.801Z,25.75
2023-01-29T20:21:08.027Z,25.40
2023-01-29T20:23:38.703Z,25.98
2023-01-29T20:26:16.586Z,24.05
2023-01-29T20:28:49.171Z,24.00
2023-01-29T20:31:17.664Z,26.70
2023-01-29T20:33:46.320Z,26.15
2023-01-29T20:36:14.997Z,24.25
2023-01-29T20:38:43.955Z,25.92
2023-01-29T20:41:19.447Z,24.85
2023-01-29T20:43:50.525Z,23.83
2023-01-29T20:46:19.220Z,23.83
2023-01-29T20:48:49.214Z,22.55
2023-01-29T20:51:18.163Z,22.45
2023-01-29T20:53:48.182Z,21.80
2023-01-29T20:56:17.898Z,24.00
2023-01-29T20:58:47.130Z,24.42
2023-01-29T21:01:19.078Z,24.30
2023-01-29T21:03:48.516Z,25.15
2023-01-29T21:06:16.851Z,23.45
2023-01-29T21:08:45.509Z,23.10
2023-01-29T21:11:13.843Z,25.83
2023-01-29T21:13:44.083Z,24.52
2023-01-29T21:16:12.691Z,25.67
2023-01-29T21:18:41.307Z,21.17
2023-01-29T21:21:09.795Z,25.80
2023-01-29T21:23:38.388Z,23.80
2023-01-29T21:26:07.914Z,23.17
2023-01-29T21:28:36.594Z,24.98
2023-01-29T21:31:06.782Z,26.55
2023-01-29T21:33:35.538Z,24.37
2023-01-29T21:36:04.515Z,25.52
2023-01-29T21:38:33.256Z,23.77
2023-01-29T21:41:03.113Z,26.10
2023-01-29T21:43:32.026Z,25.27
2023-01-29T21:46:05.095Z,24.55
2023-01-29T21:48:33.965Z,26.52
2023-01-29T21:51:02.309Z,25.65
2023-01-29T21:53:31.241Z,25.05
2023-01-29T21:56:04.091Z,25.50
2023-01-29T21:58:33.081Z,24.73
2023-01-29T22:01:35.148Z,23.85
2023-01-29T22:03:50.078Z,24.15
